createdAt,value
2018-09-17T00:01:58.778Z,6.83
2018-09-17T00:04:28.280Z,5.17
2018-09-17T00:06:57.702Z,5.13
2018-09-17T00:09:27.286Z,5.20
2018-09-17T00:11:56.787Z,5.20
2018-09-17T00:14:26.780Z,5.30
2018-09-17T00:16:57.404Z,5.23
2018-09-17T00:19:28.106Z,5.33
2018-09-17T00:21:57.883Z,4.70
2018-09-17T00:24:27.811Z,5.13
2018-09-17T00:26:58.338Z,4.90
2018-09-17T00:29:30.978Z,5.00
2018-09-17T00:32:01.100Z,5.10
2018-09-17T00:34:31.707Z,5.40
2018-09-17T00:37:07.650Z,5.67
2018-09-17T00:39:37.291Z,4.83
2018-09-17T00:42:07.739Z,5.30
2018-09-17T00:44:38.502Z,5.73
2018-09-17T00:47:08.424Z,7.60
2018-09-17T00:49:40.054Z,5.90
2018-09-17T00:52:11.020Z,5.40
2018-09-17T00:54:41.466Z,5.80
2018-09-17T00:57:13.805Z,5.40
2018-09-17T00:59:48.351Z,5.73
2018-09-17T01:02:24.336Z,5.40
2018-09-17T01:04:53.787Z,5.40
2018-09-17T01:07:23.446Z,4.90
2018-09-17T01:09:53.835Z,4.93
2018-09-17T01:12:23.685Z,5.13
2018-09-17T01:14:54.553Z,7.20
2018-09-17T01:17:27.809Z,5.20
2018-09-17T01:19:57.351Z,4.80
2018-09-17T01:22:27.692Z,4.90
2018-09-17T01:24:59.841Z,4.73
2018-09-17T01:27:32.721Z,4.93
2018-09-17T01:30:03.387Z,4.40
2018-09-17T01:32:34.220Z,4.63
2018-09-17T01:35:05.762Z,4.63
2018-09-17T01:37:35.561Z,5.07
2018-09-17T01:40:09.685Z,5.13
2018-09-17T01:42:40.989Z,4.40
2018-09-17T01:45:11.755Z,4.83
2018-09-17T01:47:41.842Z,4.70
2018-09-17T01:50:13.054Z,4.43
2018-09-17T01:52:44.125Z,5.10
2018-09-17T01:55:14.685Z,4.53
2018-09-17T01:57:46.927Z,4.90
2018-09-17T02:00:17.929Z,4.90
2018-09-17T02:02:48.298Z,5.83
2018-09-17T02:05:19.409Z,4.53
2018-09-17T02:07:53.899Z,4.33
2018-09-17T02:10:24.627Z,6.90
2018-09-17T02:12:55.022Z,5.20
2018-09-17T02:15:26.161Z,5.00
2018-09-17T02:17:55.936Z,4.60
2018-09-17T02:20:25.464Z,4.33
2018-09-17T02:22:55.082Z,4.80
2018-09-17T02:25:25.164Z,4.53
2018-09-17T02:27:55.045Z,4.30
2018-09-17T02:30:25.494Z,4.50
2018-09-17T02:32:55.077Z,5.97
2018-09-17T02:35:26.020Z,4.57
2018-09-17T02:37:56.448Z,4.40
2018-09-17T02:40:26.050Z,4.07
2018-09-17T02:42:56.021Z,4.53
2018-09-17T02:45:25.731Z,4.17
2018-09-17T02:47:55.175Z,4.57
2018-09-17T02:50:24.693Z,4.13
2018-09-17T02:52:55.040Z,3.87
2018-09-17T02:55:25.131Z,4.87
2018-09-17T02:57:54.689Z,3.77
2018-09-17T03:00:24.934Z,4.50
2018-09-17T03:02:55.152Z,4.67
2018-09-17T03:05:24.797Z,4.10
2018-09-17T03:07:57.366Z,4.30
2018-09-17T03:10:27.188Z,4.37
2018-09-17T03:12:58.596Z,4.47
2018-09-17T03:15:53.528Z,4.13
2018-09-17T03:18:39.926Z,3.97
2018-09-17T03:21:10.254Z,4.20
2018-09-17T03:23:39.848Z,4.30
2018-09-17T03:26:09.366Z,4.50
2018-09-17T03:28:39.041Z,4.43
2018-09-17T03:31:08.991Z,4.60
2018-09-17T03:33:39.682Z,4.47
2018-09-17T03:36:10.661Z,6.70
2018-09-17T03:38:50.708Z,5.00
2018-09-17T03:41:20.793Z,4.80
2018-09-17T03:43:51.512Z,4.70
2018-09-17T03:46:21.043Z,4.97
2018-09-17T03:48:50.564Z,5.17
2018-09-17T03:51:21.121Z,5.30
2018-09-17T03:53:51.628Z,5.57
2018-09-17T03:56:22.441Z,5.23
2018-09-17T03:58:52.253Z,5.83
2018-09-17T04:01:22.220Z,5.70
2018-09-17T04:03:58.858Z,5.10
2018-09-17T04:06:29.361Z,5.80
2018-09-17T04:08:58.788Z,5.80
2018-09-17T04:11:28.149Z,5.87
2018-09-17T04:13:57.917Z,5.67
2018-09-17T04:16:27.976Z,5.67
2018-09-17T04:18:59.039Z,6.10
2018-09-17T04:21:28.545Z,5.87
2018-09-17T04:23:58.071Z,6.00
2018-09-17T04:26:27.588Z,6.23
2018-09-17T04:28:57.083Z,6.43
2018-09-17T04:31:26.835Z,6.13
2018-09-17T04:33:56.466Z,6.10
2018-09-17T04:36:26.423Z,5.67
2018-09-17T04:38:56.294Z,6.00
2018-09-17T04:41:25.771Z,5.97
2018-09-17T04:43:55.105Z,6.23
2018-09-17T04:46:25.269Z,5.53
2018-09-17T04:48:54.679Z,5.83
2018-09-17T04:51:24.224Z,6.23
2018-09-17T04:53:54.705Z,6.03
2018-09-17T04:56:24.269Z,6.30
2018-09-17T04:58:55.141Z,5.53
2018-09-17T05:01:28.426Z,8.03
2018-09-17T05:03:58.489Z,5.90
2018-09-17T05:06:29.232Z,6.33
2018-09-17T05:09:00.319Z,6.00
2018-09-17T05:11:30.370Z,6.13
2018-09-17T05:14:00.066Z,6.30
2018-09-17T05:16:29.624Z,6.17
2018-09-17T05:18:59.482Z,6.73
2018-09-17T05:21:29.245Z,6.13
2018-09-17T05:23:58.916Z,6.67
2018-09-17T05:26:28.663Z,6.93
2018-09-17T05:28:58.620Z,6.50
2018-09-17T05:31:29.869Z,6.37
2018-09-17T05:34:01.105Z,6.93
2018-09-17T05:36:31.905Z,6.60
2018-09-17T05:39:04.828Z,7.20
2018-09-17T05:41:34.954Z,7.70
2018-09-17T05:44:06.907Z,6.90
2018-09-17T05:46:36.759Z,6.47
2018-09-17T05:49:10.316Z,5.80
2018-09-17T05:51:40.467Z,6.80
2018-09-17T05:54:10.579Z,6.63
2018-09-17T05:56:40.606Z,6.77
2018-09-17T05:59:10.935Z,6.60
2018-09-17T06:01:41.666Z,6.10
2018-09-17T06:04:11.396Z,6.40
2018-09-17T06:06:41.478Z,7.17
2018-09-17T06:09:13.616Z,6.13
2018-09-17T06:11:43.162Z,6.23
2018-09-17T06:14:12.736Z,5.83
2018-09-17T06:16:42.400Z,6.30
2018-09-17T06:19:12.926Z,6.60
2018-09-17T06:21:42.780Z,6.53
2018-09-17T06:24:15.362Z,6.17
2018-09-17T06:26:45.693Z,5.97
2018-09-17T06:29:16.835Z,5.50
2018-09-17T06:31:47.482Z,5.80
2018-09-17T06:34:18.945Z,6.00
2018-09-17T06:36:51.354Z,5.83
2018-09-17T06:39:22.599Z,6.23
2018-09-17T06:41:53.576Z,5.90
2018-09-17T06:44:23.485Z,5.80
2018-09-17T06:46:56.079Z,5.90
2018-09-17T06:49:26.904Z,5.40
2018-09-17T06:51:59.613Z,6.47
2018-09-17T06:54:30.619Z,5.67
2018-09-17T06:57:04.378Z,5.93
2018-09-17T06:59:38.748Z,6.30
2018-09-17T07:02:10.605Z,6.30
2018-09-17T07:04:40.924Z,5.70
2018-09-17T07:07:10.849Z,5.57
2018-09-17T07:09:40.384Z,5.17
2018-09-17T07:12:11.315Z,5.70
2018-09-17T07:14:48.185Z,5.90
2018-09-17T07:17:18.379Z,5.60
2018-09-17T07:19:48.810Z,5.57
2018-09-17T07:22:19.604Z,4.93
2018-09-17T07:24:49.958Z,5.33
2018-09-17T07:27:19.927Z,5.53
2018-09-17T07:29:50.714Z,5.00
2018-09-17T07:32:23.202Z,4.90
2018-09-17T07:34:54.035Z,5.50
2018-09-17T07:37:24.053Z,5.70
2018-09-17T07:39:56.625Z,5.17
2018-09-17T07:42:28.025Z,5.63
2018-09-17T07:44:59.963Z,5.40
2018-09-17T07:47:31.947Z,5.27
2018-09-17T07:50:05.395Z,5.57
2018-09-17T07:52:36.823Z,4.87
2018-09-17T07:55:07.476Z,5.10
2018-09-17T07:57:37.951Z,4.93
2018-09-17T08:00:24.870Z,4.97
2018-09-17T08:02:54.733Z,4.83
2018-09-17T08:05:30.324Z,4.70
2018-09-17T08:08:06.245Z,4.57
2018-09-17T08:10:37.483Z,4.47
2018-09-17T08:13:08.842Z,4.27
2018-09-17T08:15:45.007Z,4.00
2018-09-17T08:18:16.153Z,4.00
2018-09-17T08:20:46.820Z,4.07
2018-09-17T08:23:18.002Z,4.37
2018-09-17T08:25:58.833Z,4.40
2018-09-17T08:28:32.282Z,3.90
2018-09-17T08:31:02.497Z,4.13
2018-09-17T08:33:33.045Z,4.27
2018-09-17T08:36:02.860Z,3.97
2018-09-17T08:38:33.597Z,3.73
2018-09-17T08:41:07.229Z,4.20
2018-09-17T08:43:38.615Z,3.30
2018-09-17T08:46:09.421Z,3.63
2018-09-17T08:48:42.787Z,3.13
2018-09-17T08:51:12.936Z,3.53
2018-09-17T08:53:42.576Z,3.13
2018-09-17T08:56:18.763Z,3.07
2018-09-17T08:58:55.453Z,2.87
2018-09-17T09:03:37.191Z,2.57
2018-09-17T09:06:13.503Z,2.93
2018-09-17T09:08:44.225Z,2.90
2018-09-17T09:11:16.447Z,2.63
2018-09-17T09:13:52.861Z,15.10
2018-09-17T09:16:23.740Z,12.37
2018-09-17T09:18:54.448Z,4.10
2018-09-17T09:21:24.518Z,3.53
2018-09-17T09:23:55.732Z,2.90
2018-09-17T09:26:25.932Z,3.20
2018-09-17T09:28:56.710Z,3.00
2018-09-17T09:31:27.684Z,3.90
2018-09-17T09:33:57.557Z,5.60
2018-09-17T09:36:29.056Z,3.10
2018-09-17T09:38:59.892Z,3.87
2018-09-17T09:41:33.587Z,2.93
2018-09-17T09:44:06.419Z,3.03
2018-09-17T09:46:41.632Z,3.53
2018-09-17T09:49:19.266Z,2.43
2018-09-17T09:51:52.652Z,2.40
2018-09-17T09:54:25.383Z,2.73
2018-09-17T09:57:00.821Z,2.90
2018-09-17T10:05:27.815Z,3.20
2018-09-17T10:08:04.180Z,3.70
2018-09-17T10:10:50.322Z,3.40
2018-09-17T10:13:31.165Z,3.30
2018-09-17T10:16:10.492Z,3.13
2018-09-17T10:18:49.820Z,2.77
2018-09-17T10:21:24.660Z,2.67
2018-09-17T10:23:57.846Z,3.97
2018-09-17T10:26:37.072Z,3.80
2018-09-17T10:29:08.645Z,3.13
2018-09-17T10:31:38.745Z,3.23
2018-09-17T10:34:10.796Z,3.13
2018-09-17T10:36:41.596Z,3.00
2018-09-17T10:39:13.930Z,3.70
2018-09-17T10:41:44.060Z,3.63
2018-09-17T10:44:20.643Z,3.20
2018-09-17T10:46:51.283Z,3.00
2018-09-17T10:49:23.054Z,3.37
2018-09-17T10:51:53.524Z,3.40
2018-09-17T10:54:23.445Z,3.13
2018-09-17T10:56:53.097Z,3.53
2018-09-17T10:59:24.613Z,3.00
2018-09-17T11:02:26.950Z,3.40
2018-09-17T11:05:21.173Z,4.40
2018-09-17T11:07:52.149Z,4.97
2018-09-17T11:10:23.318Z,5.50
2018-09-17T11:12:53.036Z,3.40
2018-09-17T11:15:27.043Z,3.30
2018-09-17T11:17:57.204Z,4.23
2018-09-17T11:20:26.915Z,3.80
2018-09-17T11:22:56.715Z,3.30
2018-09-17T11:25:28.890Z,3.30
2018-09-17T11:27:59.703Z,4.50
2018-09-17T11:30:33.035Z,3.00
2018-09-17T11:33:08.060Z,3.07
2018-09-17T11:35:37.905Z,3.87
2018-09-17T11:38:09.102Z,2.77
2018-09-17T11:40:38.885Z,3.37
2018-09-17T11:43:09.206Z,3.33
2018-09-17T11:45:44.047Z,3.93
2018-09-17T11:48:13.959Z,3.00
2018-09-17T11:50:47.660Z,3.40
2018-09-17T11:53:24.067Z,3.20
2018-09-17T11:55:55.000Z,2.90
2018-09-17T11:58:25.319Z,3.50
2018-09-17T12:04:00.659Z,3.27
2018-09-17T12:06:44.423Z,3.70
2018-09-17T12:09:16.394Z,3.27
2018-09-17T12:11:46.889Z,3.40
2018-09-17T12:14:29.764Z,3.47
2018-09-17T12:17:01.391Z,3.10
2018-09-17T12:19:37.887Z,3.10
2018-09-17T12:22:10.118Z,3.20
2018-09-17T12:24:43.451Z,3.03
2018-09-17T12:27:21.008Z,3.40
2018-09-17T12:29:56.635Z,3.10
2018-09-17T12:32:27.676Z,3.60
2018-09-17T12:35:11.765Z,3.20
2018-09-17T12:37:43.252Z,4.30
2018-09-17T12:40:15.940Z,3.40
2018-09-17T12:56:21.716Z,3.57
2018-09-17T12:59:02.780Z,3.90
2018-09-17T13:01:36.727Z,4.37
2018-09-17T13:04:06.576Z,4.10
2018-09-17T13:06:47.087Z,3.60
2018-09-17T13:09:18.432Z,3.67
2018-09-17T13:11:52.603Z,4.20
2018-09-17T13:14:25.917Z,3.70
2018-09-17T13:17:03.495Z,3.43
2018-09-17T13:19:36.366Z,4.13
2018-09-17T13:22:14.693Z,3.77
2018-09-17T13:24:54.997Z,3.77
2018-09-17T13:27:34.600Z,3.40
2018-09-17T13:30:14.085Z,3.50
2018-09-17T13:33:11.777Z,3.77
2018-09-17T13:36:18.738Z,3.43
2018-09-17T13:38:56.188Z,4.53
2018-09-17T13:41:53.495Z,3.97
2018-09-17T13:44:48.100Z,6.13
2018-09-17T13:50:33.280Z,3.97
2018-09-17T13:53:12.050Z,4.00
2018-09-17T13:55:50.709Z,4.00
2018-09-17T13:58:21.909Z,4.30
2018-09-17T14:00:56.425Z,4.63
2018-09-17T14:03:33.553Z,3.73
2018-09-17T14:06:07.760Z,4.40
2018-09-17T14:08:37.733Z,3.83
2018-09-17T14:11:23.213Z,4.03
2018-09-17T14:13:59.432Z,4.17
2018-09-17T14:16:36.637Z,4.70
2018-09-17T14:19:07.614Z,4.63
2018-09-17T14:21:39.310Z,4.90
2018-09-17T14:24:10.824Z,4.50
2018-09-17T14:27:02.893Z,4.17
2018-09-17T14:29:32.914Z,4.83
2018-09-17T14:32:10.768Z,3.77
2018-09-17T14:34:44.348Z,4.17
2018-09-17T14:37:15.769Z,4.73
2018-09-17T14:42:25.365Z,4.77
2018-09-17T14:44:55.817Z,4.07
2018-09-17T14:47:27.972Z,4.47
2018-09-17T14:53:13.660Z,3.83
2018-09-17T14:55:45.503Z,3.63
2018-09-17T14:58:16.500Z,4.07
2018-09-17T15:00:46.703Z,3.40
2018-09-17T15:03:18.126Z,3.90
2018-09-17T15:05:50.140Z,3.63
2018-09-17T15:08:20.088Z,3.47
2018-09-17T15:10:50.334Z,3.93
2018-09-17T15:13:19.860Z,4.30
2018-09-17T15:15:54.682Z,4.40
2018-09-17T15:18:25.727Z,3.87
2018-09-17T15:21:01.008Z,3.73
2018-09-17T15:23:33.864Z,4.13
2018-09-17T15:26:05.739Z,4.43
2018-09-17T15:28:45.505Z,4.30
2018-09-17T15:31:28.538Z,3.97
2018-09-17T15:33:59.299Z,3.53
2018-09-17T15:36:29.067Z,4.07
2018-09-17T15:39:02.711Z,4.30
2018-09-17T15:41:32.959Z,3.83
2018-09-17T15:44:03.828Z,3.80
2018-09-17T15:46:35.683Z,3.87
2018-09-17T15:49:12.296Z,3.77
2018-09-17T15:51:43.526Z,3.90
2018-09-17T15:54:18.853Z,3.70
2018-09-17T15:56:50.550Z,3.63
2018-09-17T15:59:20.262Z,3.60
2018-09-17T16:01:51.503Z,3.80
2018-09-17T16:04:21.773Z,3.47
2018-09-17T16:06:54.350Z,3.50
2018-09-17T16:09:31.931Z,3.77
2018-09-17T16:12:01.817Z,3.57
2018-09-17T16:14:35.551Z,4.40
2018-09-17T16:17:05.426Z,4.10
2018-09-17T16:19:36.216Z,3.83
2018-09-17T16:22:12.122Z,4.87
2018-09-17T16:24:46.647Z,4.27
2018-09-17T16:27:17.047Z,4.60
2018-09-17T16:29:47.930Z,4.70
2018-09-17T16:32:23.890Z,4.50
2018-09-17T16:34:55.955Z,4.00
2018-09-17T16:37:26.644Z,4.27
2018-09-17T16:41:20.795Z,3.97
2018-09-17T16:43:53.165Z,4.40
2018-09-17T16:46:24.997Z,4.33
2018-09-17T16:48:55.556Z,4.50
2018-09-17T16:51:27.162Z,4.27
2018-09-17T16:53:59.363Z,5.93
2018-09-17T16:56:33.680Z,11.03
2018-09-17T16:59:08.996Z,18.17
2018-09-17T17:01:40.115Z,17.80
2018-09-17T17:04:16.713Z,12.67
2018-09-17T17:06:50.627Z,8.37
2018-09-17T17:09:23.096Z,6.83
2018-09-17T17:11:54.694Z,16.77
2018-09-17T17:14:25.486Z,7.30
2018-09-17T17:16:57.854Z,10.90
2018-09-17T17:19:28.918Z,9.70
2018-09-17T17:22:04.105Z,8.43
2018-09-17T17:24:39.183Z,11.30
2018-09-17T17:27:15.022Z,13.17
2018-09-17T17:29:50.345Z,15.90
2018-09-17T17:32:22.027Z,12.60
2018-09-17T17:34:51.747Z,13.43
2018-09-17T17:37:23.284Z,16.43
2018-09-17T17:39:54.754Z,16.80
2018-09-17T17:42:25.409Z,14.97
2018-09-17T17:45:02.139Z,14.70
2018-09-17T17:47:33.254Z,18.73
2018-09-17T17:50:04.298Z,15.17
2018-09-17T17:52:39.162Z,19.63
2018-09-17T17:55:14.333Z,36.30
2018-09-17T17:57:46.517Z,39.93
2018-09-17T18:00:23.560Z,21.43
2018-09-17T18:02:56.920Z,24.10
2018-09-17T18:05:28.113Z,21.57
2018-09-17T18:07:59.907Z,21.87
2018-09-17T18:10:33.920Z,21.50
2018-09-17T18:13:07.669Z,21.03
2018-09-17T18:15:48.502Z,25.50
2018-09-17T18:18:24.403Z,21.17
2018-09-17T18:21:00.331Z,16.53
2018-09-17T18:23:34.740Z,15.77
2018-09-17T18:26:30.958Z,14.23
2018-09-17T18:29:15.778Z,11.53
2018-09-17T18:41:16.749Z,12.73
2018-09-17T18:47:01.036Z,12.90
2018-09-17T18:55:48.862Z,14.67
2018-09-17T19:07:43.840Z,12.37
2018-09-17T19:10:36.072Z,13.00
2018-09-17T19:17:02.708Z,14.00
2018-09-17T19:23:03.884Z,11.93
2018-09-17T19:25:56.736Z,13.23
2018-09-17T19:34:48.002Z,11.47
2018-09-17T19:53:53.522Z,17.33
2018-09-17T19:56:53.693Z,15.33
2018-09-17T20:03:02.953Z,16.07
2018-09-17T20:05:58.006Z,13.83
2018-09-17T20:08:46.054Z,14.57
2018-09-17T20:14:46.129Z,15.03
2018-09-17T20:24:33.993Z,12.30
2018-09-17T20:27:40.948Z,12.33
2018-09-17T20:31:29.306Z,10.70
2018-09-17T20:40:16.214Z,23.13
2018-09-17T20:42:51.046Z,18.93
2018-09-17T20:45:21.726Z,17.57
2018-09-17T20:48:06.520Z,16.97
2018-09-17T20:50:52.545Z,17.00
2018-09-17T20:53:22.983Z,15.33
2018-09-17T20:55:57.593Z,19.33
2018-09-17T20:58:29.668Z,16.83
2018-09-17T21:01:05.834Z,13.57
2018-09-17T21:03:55.850Z,15.07
2018-09-17T21:06:32.291Z,14.87
2018-09-17T21:09:02.154Z,16.47
2018-09-17T21:11:33.350Z,12.03
2018-09-17T21:14:05.128Z,12.00
2018-09-17T21:16:34.858Z,13.37
2018-09-17T21:19:05.828Z,12.83
2018-09-17T21:21:36.002Z,14.93
2018-09-17T21:24:07.448Z,11.17
2018-09-17T21:26:37.055Z,10.27
2018-09-17T21:29:07.207Z,9.40
2018-09-17T21:31:36.827Z,9.10
2018-09-17T21:34:11.529Z,9.37
2018-09-17T21:36:41.904Z,10.87
2018-09-17T21:39:13.852Z,9.50
2018-09-17T21:41:43.614Z,9.70
2018-09-17T21:44:13.442Z,10.80
2018-09-17T21:46:43.261Z,9.30
2018-09-17T21:49:13.082Z,9.63
2018-09-17T21:51:48.832Z,9.60
2018-09-17T21:54:20.795Z,9.00
2018-09-17T21:56:52.650Z,9.07
2018-09-17T21:59:24.479Z,8.43
2018-09-17T22:01:54.293Z,8.93
2018-09-17T22:04:24.783Z,8.77
2018-09-17T22:06:54.903Z,8.53
2018-09-17T22:09:24.545Z,8.37
2018-09-17T22:11:55.309Z,7.63
2018-09-17T22:14:37.235Z,7.37
2018-09-17T22:17:08.118Z,7.77
2018-09-17T22:19:44.428Z,8.47
2018-09-17T22:22:13.877Z,8.60
2018-09-17T22:24:43.908Z,8.70
2018-09-17T22:27:13.357Z,8.17
2018-09-17T22:29:43.379Z,7.97
2018-09-17T22:32:12.755Z,8.43
2018-09-17T22:34:42.291Z,9.20
2018-09-17T22:37:11.805Z,10.90
2018-09-17T22:39:41.332Z,8.33
2018-09-17T22:42:11.097Z,8.30
2018-09-17T22:44:40.565Z,9.00
2018-09-17T22:47:10.871Z,8.13
2018-09-17T22:49:41.063Z,8.67
2018-09-17T22:52:11.266Z,8.77
2018-09-17T22:54:41.300Z,7.57
2018-09-17T22:57:10.961Z,7.77
2018-09-17T22:59:41.771Z,8.33
2018-09-17T23:02:11.358Z,8.27
2018-09-17T23:04:40.736Z,8.20
2018-09-17T23:07:10.202Z,8.07
2018-09-17T23:09:39.613Z,8.20
2018-09-17T23:12:09.343Z,7.87
2018-09-17T23:14:39.085Z,7.83
2018-09-17T23:17:10.440Z,8.43
2018-09-17T23:19:40.660Z,8.00
2018-09-17T23:22:10.940Z,7.87
2018-09-17T23:24:40.594Z,11.00
2018-09-17T23:27:11.273Z,7.93
2018-09-17T23:29:40.922Z,8.23
2018-09-17T23:32:11.730Z,7.67
2018-09-17T23:34:41.681Z,8.53
2018-09-17T23:37:11.689Z,8.53
2018-09-17T23:39:41.241Z,7.77
2018-09-17T23:42:10.989Z,8.03
2018-09-17T23:44:43.069Z,7.93
2018-09-17T23:47:12.733Z,8.43
2018-09-17T23:49:44.685Z,8.77
2018-09-17T23:52:14.556Z,8.17
2018-09-17T23:54:45.108Z,7.80
2018-09-17T23:57:15.019Z,8.53
2018-09-17T23:59:44.772Z,8.07
